Time;durP1;ratioP1;P1;durP2;ratioP2;P2;SDS_P1;SDS_P2;PMS_P1;PMS_P2;Temp;Humidity;BMP_temperature;BMP_pressure;BME280_temperature;BME280_humidity;BME280_pressure;Samples;Min_cycle;Max_cycle;Signal;HPM_P1;HPM_P2
2023/09/10 00:00:58;;;;;;;27.48;19.33;;;;;;;22.45;100.00;101602.34;5152978;28;20028;-72
2023/09/10 00:03:29;;;;;;;23.35;20.48;;;;;;;22.14;100.00;101605.38;5152380;28;20113;-70
2023/09/10 00:06:07;;;;;;;23.02;20.80;;;;;;;22.35;100.00;101606.94;5142438;28;20067;-72
2023/09/10 00:08:38;;;;;;;23.75;20.98;;;;;;;22.33;100.00;101604.41;5153712;28;20038;-71
2023/09/10 00:11:10;;;;;;;21.55;19.30;;;;;;;22.37;100.00;101602.28;5153152;28;20023;-71
2023/09/10 00:13:41;;;;;;;22.05;19.73;;;;;;;22.14;100.00;101605.38;5153839;28;20055;-69
2023/09/10 00:16:12;;;;;;;26.25;19.30;;;;;;;22.30;100.00;101595.88;5151493;28;20031;-69
2023/09/10 00:18:44;;;;;;;23.45;19.20;;;;;;;22.16;100.00;101602.56;5156266;28;20027;-71
2023/09/10 00:21:15;;;;;;;25.40;21.42;;;;;;;21.91;100.00;101605.78;5140624;29;20119;-72
2023/09/10 00:23:46;;;;;;;23.42;19.40;;;;;;;21.92;100.00;101603.97;5153034;28;20082;-71
2023/09/10 00:26:17;;;;;;;22.00;19.67;;;;;;;22.02;100.00;101606.56;5152452;28;20114;-69
2023/09/10 00:28:49;;;;;;;26.08;20.20;;;;;;;21.99;100.00;101599.72;5152949;28;20033;-70
2023/09/10 00:31:21;;;;;;;23.42;18.75;;;;;;;21.86;100.00;101608.06;5152208;28;20418;-71
2023/09/10 00:33:52;;;;;;;23.10;18.35;;;;;;;21.91;100.00;101603.13;5151822;28;20042;-70
2023/09/10 00:36:23;;;;;;;20.85;18.70;;;;;;;21.87;100.00;101599.91;5149629;28;20050;-70
2023/09/10 00:38:55;;;;;;;20.42;18.38;;;;;;;21.99;100.00;101603.22;5153366;28;20058;-72
2023/09/10 00:41:26;;;;;;;25.50;20.92;;;;;;;21.59;100.00;101591.88;5152302;28;20122;-70
2023/09/10 00:43:57;;;;;;;21.10;18.80;;;;;;;21.94;100.00;101594.81;5152936;28;20078;-71
2023/09/10 00:46:29;;;;;;;22.85;18.95;;;;;;;21.59;100.00;101593.72;5151153;28;20054;-70
2023/09/10 00:49:00;;;;;;;27.23;19.52;;;;;;;21.85;100.00;101596.56;5151022;28;20097;-74
2023/09/10 00:51:32;;;;;;;22.23;18.70;;;;;;;21.82;100.00;101594.19;5152424;28;20039;-71
2023/09/10 00:54:03;;;;;;;23.73;21.23;;;;;;;21.45;100.00;101603.84;5150552;28;20043;-70
2023/09/10 00:56:35;;;;;;;26.35;21.00;;;;;;;21.80;100.00;101598.81;5152999;28;20062;-71
2023/09/10 00:59:08;;;;;;;25.08;22.58;;;;;;;21.82;100.00;101598.72;5150595;28;20067;-69
2023/09/10 01:01:39;;;;;;;31.83;22.30;;;;;;;21.76;100.00;101597.44;5152163;28;20513;-69
2023/09/10 01:04:12;;;;;;;23.55;21.17;;;;;;;21.80;100.00;101603.34;5151964;29;20034;-71
2023/09/10 01:06:44;;;;;;;23.73;20.90;;;;;;;21.78;100.00;101594.63;5152406;28;20386;-70
2023/09/10 01:09:15;;;;;;;27.27;20.70;;;;;;;21.76;100.00;101594.75;5152135;29;20035;-69
2023/09/10 01:12:01;;;;;;;25.05;22.45;;;;;;;21.79;100.00;101597.16;5152514;28;20106;-72
2023/09/10 01:15:07;;;;;;;25.15;22.90;;;;;;;21.92;100.00;101599.50;5150707;28;20050;-70
2023/09/10 01:17:44;;;;;;;23.83;21.42;;;;;;;21.76;100.00;101592.91;5149877;28;20023;-72
2023/09/10 01:20:28;;;;;;;26.00;23.27;;;;;;;21.71;100.00;101597.03;5151752;28;20027;-70
2023/09/10 01:23:02;;;;;;;28.10;25.17;;;;;;;21.58;100.00;101594.69;5152039;28;20501;-72
2023/09/10 01:25:33;;;;;;;33.05;25.73;;;;;;;21.63;100.00;101595.09;5150773;28;20612;-70
2023/09/10 01:28:04;;;;;;;26.65;24.27;;;;;;;21.72;100.00;101598.72;5151867;28;20046;-69
2023/09/10 01:30:36;;;;;;;28.43;24.70;;;;;;;21.58;100.00;101592.03;5151246;28;20382;-72
2023/09/10 01:33:13;;;;;;;28.75;25.85;;;;;;;21.65;100.00;101595.78;5151723;28;20027;-69
2023/09/10 01:36:02;;;;;;;29.95;26.90;;;;;;;21.65;100.00;101601.13;5151119;28;20103;-69
2023/09/10 01:38:43;;;;;;;31.45;28.13;;;;;;;21.71;100.00;101599.72;5150359;28;20043;-69
2023/09/10 01:41:18;;;;;;;35.07;28.00;;;;;;;21.51;100.00;101595.28;5151173;28;20031;-69
2023/09/10 01:43:51;;;;;;;32.95;28.85;;;;;;;21.24;100.00;101599.56;5150294;28;20050;-69
2023/09/10 01:46:24;;;;;;;34.47;30.67;;;;;;;21.35;100.00;101595.91;5148610;28;20124;-69
2023/09/10 01:48:56;;;;;;;33.03;29.67;;;;;;;21.31;100.00;101607.00;5150944;29;20497;-72
2023/09/10 01:51:27;;;;;;;40.33;30.13;;;;;;;21.36;100.00;101607.41;5150911;28;20035;-69
2023/09/10 01:53:59;;;;;;;34.25;30.88;;;;;;;21.11;100.00;101607.03;5151315;28;20686;-69
2023/09/10 01:56:30;;;;;;;35.43;31.70;;;;;;;21.40;100.00;101606.13;5149650;29;20038;-72
2023/09/10 01:59:02;;;;;;;32.90;29.40;;;;;;;21.28;100.00;101600.97;5150805;28;20042;-71
2023/09/10 02:01:33;;;;;;;33.50;30.17;;;;;;;21.49;100.00;101618.59;5146673;28;20498;-71
2023/09/10 02:04:05;;;;;;;34.47;30.93;;;;;;;21.36;100.00;101608.25;5150706;28;20039;-69
2023/09/10 02:06:36;;;;;;;33.83;30.47;;;;;;;21.06;100.00;101611.97;5146023;28;20725;-70
2023/09/10 02:09:07;;;;;;;33.50;29.90;;;;;;;21.44;100.00;101612.00;5148040;28;20042;-69
2023/09/10 02:11:39;;;;;;;34.20;30.85;;;;;;;21.19;100.00;101612.47;5150758;28;20060;-69
2023/09/10 02:14:10;;;;;;;36.73;32.80;;;;;;;21.10;100.00;101605.38;5150470;28;20078;-72
2023/09/10 02:16:41;;;;;;;42.93;31.37;;;;;;;21.34;100.00;101612.88;5149727;28;20125;-72
2023/09/10 02:19:14;;;;;;;39.08;32.92;;;;;;;21.37;100.00;101622.41;5150233;28;20061;-70
2023/09/10 02:21:45;;;;;;;38.13;34.43;;;;;;;21.03;100.00;101613.91;5136390;28;20035;-69
2023/09/10 02:24:16;;;;;;;36.30;32.55;;;;;;;21.15;100.00;101600.47;5141868;29;20043;-69
2023/09/10 02:26:47;;;;;;;39.05;35.35;;;;;;;21.24;100.00;101617.41;5150471;28;20517;-71
2023/09/10 02:29:19;;;;;;;40.40;36.13;;;;;;;21.10;100.00;101613.38;5149357;28;20114;-71
2023/09/10 02:31:50;;;;;;;40.30;36.20;;;;;;;21.30;100.00;101619.47;5149461;28;20031;-69
2023/09/10 02:34:21;;;;;;;39.72;34.42;;;;;;;21.18;100.00;101608.16;5151078;28;20077;-69
2023/09/10 02:36:52;;;;;;;37.45;33.97;;;;;;;20.96;100.00;101610.16;5165519;28;20118;-69
2023/09/10 02:39:24;;;;;;;37.95;34.03;;;;;;;21.30;100.00;101614.16;5164884;28;20051;-71
2023/09/10 02:41:55;;;;;;;38.67;34.97;;;;;;;21.17;100.00;101610.97;5153385;28;20791;-69
2023/09/10 02:44:27;;;;;;;37.30;33.35;;;;;;;21.19;100.00;101607.16;5148508;29;20031;-71
2023/09/10 02:46:58;;;;;;;38.40;34.73;;;;;;;21.30;100.00;101606.16;5149630;29;20097;-69
2023/09/10 02:49:29;;;;;;;38.17;34.45;;;;;;;21.24;100.00;101609.41;5150518;28;20024;-69
2023/09/10 02:52:01;;;;;;;38.63;34.73;;;;;;;21.31;100.00;101612.34;5140307;28;20039;-72
2023/09/10 02:54:34;;;;;;;39.63;35.77;;;;;;;21.19;100.00;101609.00;5150146;28;20035;-70
2023/09/10 02:57:06;;;;;;;40.85;36.92;;;;;;;21.15;100.00;101605.78;5149996;28;20035;-72
2023/09/10 02:59:37;;;;;;;41.50;37.60;;;;;;;21.02;100.00;101614.91;5149661;28;20046;-70
2023/09/10 03:02:09;;;;;;;40.30;36.50;;;;;;;21.14;100.00;101609.41;5148339;28;20129;-69
2023/09/10 03:04:40;;;;;;;41.77;37.77;;;;;;;21.00;100.00;101616.88;5146575;28;20035;-71
2023/09/10 03:07:11;;;;;;;40.73;37.00;;;;;;;20.82;100.00;101602.56;5148436;29;20122;-69
2023/09/10 03:09:42;;;;;;;39.60;36.00;;;;;;;21.14;100.00;101615.59;5149029;29;20023;-71
2023/09/10 03:12:25;;;;;;;42.50;36.30;;;;;;;21.27;100.00;101614.44;5143178;28;20788;-69
2023/09/10 03:14:57;;;;;;;41.77;37.67;;;;;;;21.07;100.00;101611.81;5151604;28;20048;-70
2023/09/10 03:17:28;;;;;;;41.47;37.50;;;;;;;21.14;100.00;101606.75;5147735;29;20454;-71
2023/09/10 03:20:00;;;;;;;38.63;35.10;;;;;;;21.07;100.00;101614.47;5154147;28;20131;-69
2023/09/10 03:22:31;;;;;;;41.97;37.90;;;;;;;21.06;100.00;101603.97;5154821;29;20027;-72
2023/09/10 03:25:02;;;;;;;41.97;37.90;;;;;;;21.12;100.00;101606.91;5146667;28;20067;-69
2023/09/10 03:27:34;;;;;;;41.67;37.57;;;;;;;21.14;100.00;101601.44;5153849;28;20023;-70
2023/09/10 03:30:06;;;;;;;43.20;38.93;;;;;;;20.97;100.00;101598.53;5153032;28;20073;-69
2023/09/10 03:32:37;;;;;;;43.00;38.87;;;;;;;21.01;100.00;101605.25;5153893;28;20554;-69
2023/09/10 03:35:10;;;;;;;44.43;40.23;;;;;;;20.93;100.00;101599.75;5151722;28;20041;-71
2023/09/10 03:37:42;;;;;;;43.15;38.90;;;;;;;20.96;100.00;101602.19;5152639;28;20078;-72
2023/09/10 03:40:14;;;;;;;45.50;40.90;;;;;;;21.02;100.00;101601.59;5153652;28;20035;-69
2023/09/10 03:42:45;;;;;;;43.83;39.57;;;;;;;20.99;100.00;101603.72;5152691;28;20023;-72
2023/09/10 03:45:17;;;;;;;43.80;39.53;;;;;;;21.00;100.00;101608.88;5151640;29;20047;-69
2023/09/10 03:47:48;;;;;;;41.40;37.43;;;;;;;21.01;100.00;101602.59;5146350;28;20028;-69
2023/09/10 03:50:19;;;;;;;43.87;39.00;;;;;;;20.96;100.00;101596.00;5151049;29;20027;-69
2023/09/10 03:52:52;;;;;;;43.70;39.57;;;;;;;20.94;100.00;101588.16;5151911;28;20031;-70
2023/09/10 03:55:23;;;;;;;45.13;40.53;;;;;;;20.90;100.00;101592.06;5153182;28;20030;-72
2023/09/10 03:57:54;;;;;;;43.90;39.60;;;;;;;20.84;100.00;101598.78;5151973;28;20093;-72
2023/09/10 04:00:26;;;;;;;41.50;37.13;;;;;;;20.90;100.00;101592.06;5152677;28;20038;-71
2023/09/10 04:02:57;;;;;;;44.60;40.27;;;;;;;20.88;100.00;101586.88;5153503;28;20190;-70
2023/09/10 04:05:28;;;;;;;46.33;41.73;;;;;;;20.77;100.00;101590.53;5153162;28;20067;-70
2023/09/10 04:08:00;;;;;;;49.90;41.50;;;;;;;20.95;100.00;101581.84;5153521;28;20034;-71
2023/09/10 04:10:31;;;;;;;46.53;41.83;;;;;;;20.88;100.00;101580.69;5152871;28;20490;-70
2023/09/10 04:13:03;;;;;;;46.53;41.97;;;;;;;20.87;100.00;101587.03;5152901;29;20122;-70
2023/09/10 04:15:35;;;;;;;47.63;43.10;;;;;;;20.54;100.00;101579.34;5152776;28;20445;-69
2023/09/10 04:18:07;;;;;;;44.97;40.23;;;;;;;20.74;100.00;101582.81;5152707;28;20027;-70
2023/09/10 04:20:38;;;;;;;47.20;42.50;;;;;;;20.78;100.00;101572.75;5153671;28;20036;-70
2023/09/10 04:23:09;;;;;;;47.73;43.00;;;;;;;20.60;100.00;101578.78;5152102;28;20500;-69
2023/09/10 04:25:41;;;;;;;45.87;41.50;;;;;;;20.83;100.00;101581.13;5152509;28;20098;-70
2023/09/10 04:28:12;;;;;;;46.27;41.43;;;;;;;20.81;100.00;101577.78;5152817;29;20027;-69
2023/09/10 04:30:44;;;;;;;46.50;41.90;;;;;;;20.73;100.00;101577.66;5150637;29;20035;-69
2023/09/10 04:33:18;;;;;;;47.60;42.93;;;;;;;20.66;100.00;101580.88;5152584;28;20081;-71
2023/09/10 04:35:50;;;;;;;;;;;;;;;21.25;100.00;101579.13;5168159;28;20054;-72
2023/09/10 04:38:22;;;;;;;47.50;42.57;;;;;;;20.52;100.00;101576.84;5152095;28;20026;-69
2023/09/10 04:40:54;;;;;;;47.33;42.57;;;;;;;20.74;100.00;101587.31;5152514;28;20060;-70
2023/09/10 04:43:26;;;;;;;47.73;42.90;;;;;;;20.48;100.00;101583.41;5151097;28;20027;-69
2023/09/10 04:45:57;;;;;;;48.87;43.87;;;;;;;20.58;100.00;101585.22;5142128;29;20058;-69
2023/09/10 04:48:29;;;;;;;47.50;42.70;;;;;;;20.70;100.00;101577.94;5152097;28;20367;-71
2023/09/10 04:51:00;;;;;;;48.53;44.03;;;;;;;20.42;100.00;101581.31;5152150;28;20023;-73
2023/09/10 04:53:31;;;;;;;50.57;43.90;;;;;;;20.47;100.00;101580.88;5152538;29;20140;-69
2023/09/10 04:56:03;;;;;;;47.33;42.53;;;;;;;20.72;100.00;101584.78;5146524;29;20030;-69
2023/09/10 04:58:34;;;;;;;46.33;40.50;;;;;;;20.66;100.00;101580.88;5145182;29;20039;-71
2023/09/10 05:01:06;;;;;;;46.63;41.90;;;;;;;20.74;100.00;101588.16;5158872;28;20035;-72
2023/09/10 05:03:37;;;;;;;46.90;42.33;;;;;;;20.59;100.00;101595.72;5152637;28;20043;-68
2023/09/10 05:06:09;;;;;;;48.97;44.10;;;;;;;20.58;100.00;101595.88;5151717;29;20031;-69
2023/09/10 05:08:40;;;;;;;45.47;41.17;;;;;;;20.54;100.00;101593.47;5152493;28;20110;-71
2023/09/10 05:11:12;;;;;;;47.47;42.23;;;;;;;20.38;100.00;101603.84;5152127;28;20035;-69
2023/09/10 05:13:44;;;;;;;47.53;42.47;;;;;;;20.52;100.00;101606.09;5152066;28;20035;-71
2023/09/10 05:16:15;;;;;;;46.37;41.80;;;;;;;20.41;100.00;101606.22;5140004;28;20031;-69
2023/09/10 05:18:47;;;;;;;49.83;44.73;;;;;;;20.33;100.00;101606.06;5152464;28;20736;-68
2023/09/10 05:21:20;;;;;;;48.13;43.10;;;;;;;20.44;100.00;101597.94;5151604;28;20385;-72
2023/09/10 05:23:51;;;;;;;45.80;41.23;;;;;;;20.58;100.00;101598.53;5150376;29;20031;-69
2023/09/10 05:26:22;;;;;;;46.33;41.53;;;;;;;20.66;100.00;101602.19;5151409;28;20038;-69
2023/09/10 05:28:54;;;;;;;46.40;42.13;;;;;;;20.57;100.00;101600.34;5142128;29;20375;-70
2023/09/10 05:31:25;;;;;;;47.13;42.13;;;;;;;20.57;100.00;101599.50;5165132;28;20429;-69
2023/09/10 05:33:56;;;;;;;45.45;41.08;;;;;;;20.36;100.00;101595.16;5152233;28;20050;-70
2023/09/10 05:36:28;;;;;;;47.17;42.33;;;;;;;20.46;100.00;101606.63;5150706;28;20573;-69
2023/09/10 05:38:59;;;;;;;48.17;43.40;;;;;;;20.53;100.00;101607.75;5151348;29;20039;-71
2023/09/10 05:41:31;;;;;;;45.20;40.60;;;;;;;20.64;100.00;101604.13;5151095;28;20101;-70
2023/09/10 05:44:04;;;;;;;44.07;39.67;;;;;;;20.64;100.00;101605.94;5150953;28;20039;-69
2023/09/10 05:46:35;;;;;;;44.20;39.93;;;;;;;20.75;100.00;101599.66;5149221;28;20050;-71
2023/09/10 05:49:07;;;;;;;43.70;39.57;;;;;;;20.71;100.00;101607.06;5140675;28;20030;-69
2023/09/10 05:51:38;;;;;;;45.00;40.60;;;;;;;20.61;100.00;101606.22;5145698;28;20055;-70
2023/09/10 05:54:09;;;;;;;47.53;41.47;;;;;;;20.71;100.00;101596.44;5151623;28;20082;-70
2023/09/10 05:56:41;;;;;;;44.30;39.83;;;;;;;20.76;100.00;101609.31;5151842;28;20031;-69
2023/09/10 05:59:12;;;;;;;44.63;39.87;;;;;;;20.67;100.00;101603.00;5151039;29;20042;-69
2023/09/10 06:01:43;;;;;;;43.23;38.73;;;;;;;20.85;100.00;101604.94;5165295;28;20027;-68
2023/09/10 06:04:14;;;;;;;43.00;38.40;;;;;;;20.74;100.00;101614.75;5151046;28;20027;-71
2023/09/10 06:06:46;;;;;;;40.93;36.63;;;;;;;20.81;100.00;101620.38;5151118;29;20037;-70
2023/09/10 06:09:17;;;;;;;42.37;37.93;;;;;;;20.80;100.00;101613.38;5146396;28;20034;-68
2023/09/10 06:11:49;;;;;;;42.80;38.27;;;;;;;20.85;100.00;101626.25;5151398;28;20031;-69
2023/09/10 06:14:20;;;;;;;41.33;37.13;;;;;;;20.83;100.00;101629.06;5150127;28;20035;-69
2023/09/10 06:16:51;;;;;;;40.40;36.33;;;;;;;20.95;100.00;101626.25;5150047;29;20509;-72
2023/09/10 06:19:22;;;;;;;41.17;36.90;;;;;;;20.89;100.00;101632.97;5150964;28;20042;-69
2023/09/10 06:21:54;;;;;;;39.43;35.27;;;;;;;21.02;100.00;101628.22;5148993;28;20137;-69
2023/09/10 06:24:25;;;;;;;38.97;34.80;;;;;;;21.07;100.00;101627.78;5149745;28;20075;-68
2023/09/10 06:26:56;;;;;;;39.57;35.53;;;;;;;21.08;100.00;101636.63;5150296;28;20666;-69
2023/09/10 06:29:28;;;;;;;41.27;36.93;;;;;;;21.11;100.00;101631.00;5147795;28;20023;-72
2023/09/10 06:31:59;;;;;;;40.00;35.77;;;;;;;21.11;100.00;101626.53;5150972;28;20108;-68
2023/09/10 06:34:30;;;;;;;38.65;34.60;;;;;;;21.24;100.00;101641.38;5149279;28;20035;-73
2023/09/10 06:37:02;;;;;;;35.83;32.33;;;;;;;21.24;100.00;101636.06;5165028;28;20027;-69
2023/09/10 06:39:38;;;;;;;39.47;32.83;;;;;;;21.25;100.00;101635.91;5145875;28;20046;-69
2023/09/10 06:42:13;;;;;;;39.60;34.50;;;;;;;21.39;100.00;101636.44;5149164;28;20113;-68
2023/09/10 06:44:44;;;;;;;39.47;33.77;;;;;;;21.38;100.00;101640.91;5149966;28;20142;-71
2023/09/10 06:47:15;;;;;;;40.60;33.35;;;;;;;21.43;100.00;101629.84;5147225;29;20113;-69
2023/09/10 06:49:47;;;;;;;37.97;34.08;;;;;;;21.54;100.00;101646.63;5150209;28;20023;-71
2023/09/10 06:52:18;;;;;;;34.90;31.40;;;;;;;21.57;100.00;101641.00;5148397;28;20019;-70
2023/09/10 06:54:50;;;;;;;36.05;32.42;;;;;;;21.68;100.00;101645.31;5149838;28;20506;-71
2023/09/10 06:57:21;;;;;;;36.45;32.38;;;;;;;21.76;100.00;101640.09;5147599;28;20591;-72
2023/09/10 06:59:52;;;;;;;36.67;32.10;;;;;;;21.83;100.00;101648.38;5153722;28;20115;-69
2023/09/10 07:02:25;;;;;;;34.92;30.88;;;;;;;21.91;100.00;101650.28;5147477;28;20039;-69
2023/09/10 07:04:56;;;;;;;35.63;31.95;;;;;;;21.97;100.00;101653.22;5138640;29;20023;-72
2023/09/10 07:07:27;;;;;;;35.47;30.20;;;;;;;22.05;100.00;101659.63;5143363;29;20047;-69
2023/09/10 07:09:59;;;;;;;32.20;29.23;;;;;;;22.22;100.00;101656.16;5150303;29;20067;-71
2023/09/10 07:12:30;;;;;;;32.72;29.30;;;;;;;22.23;100.00;101657.00;5150019;29;20050;-73
2023/09/10 07:15:02;;;;;;;31.38;27.83;;;;;;;22.30;100.00;101657.22;5149223;29;20027;-69
2023/09/10 07:17:33;;;;;;;29.67;26.45;;;;;;;22.35;100.00;101655.81;5150342;28;20055;-71
2023/09/10 07:20:05;;;;;;;33.25;27.50;;;;;;;22.43;100.00;101647.03;5145322;29;20517;-69
2023/09/10 07:22:36;;;;;;;27.45;24.75;;;;;;;22.57;100.00;101645.66;5149851;28;20340;-69
2023/09/10 07:25:08;;;;;;;28.30;25.13;;;;;;;22.55;100.00;101639.63;5149992;28;20066;-69
2023/09/10 07:27:39;;;;;;;29.70;22.77;;;;;;;22.89;100.00;101656.81;5150259;28;20134;-69
2023/09/10 07:30:11;;;;;;;26.35;23.20;;;;;;;22.98;100.00;101663.06;5149512;28;20023;-72
2023/09/10 07:32:42;;;;;;;25.50;22.83;;;;;;;23.12;100.00;101653.66;5150051;28;20070;-70
2023/09/10 07:35:16;;;;;;;25.05;22.20;;;;;;;23.40;100.00;101650.00;5148254;28;20082;-71
2023/09/10 07:37:47;;;;;;;29.38;20.75;;;;;;;23.59;100.00;101653.47;5149157;28;20039;-70
2023/09/10 07:40:18;;;;;;;25.70;19.48;;;;;;;23.78;100.00;101649.72;5140762;29;20379;-73
2023/09/10 07:42:50;;;;;;;25.50;18.38;;;;;;;23.88;100.00;101653.09;5149968;28;20122;-70
2023/09/10 07:45:21;;;;;;;21.48;17.23;;;;;;;24.01;100.00;101649.13;5147099;29;20102;-69
2023/09/10 07:47:52;;;;;;;21.38;18.15;;;;;;;23.99;100.00;101653.81;5149629;28;20114;-67
2023/09/10 07:50:24;;;;;;;18.30;16.60;;;;;;;24.23;100.00;101655.75;5149901;28;20114;-67
2023/09/10 07:52:55;;;;;;;25.77;16.83;;;;;;;24.40;100.00;101651.25;5149951;28;20034;-67
2023/09/10 07:55:26;;;;;;;21.77;16.90;;;;;;;24.48;100.00;101654.97;5147342;28;20031;-69
2023/09/10 07:57:58;;;;;;;21.42;14.73;;;;;;;24.70;100.00;101653.47;5150030;28;20027;-67
2023/09/10 08:00:34;;;;;;;20.45;13.82;;;;;;;24.86;100.00;101659.84;5151506;28;20039;-69
2023/09/10 08:03:06;;;;;;;20.60;12.32;;;;;;;24.85;100.00;101650.97;5144440;29;20390;-70
2023/09/10 08:05:38;;;;;;;19.10;14.23;;;;;;;24.96;100.00;101670.44;5153707;28;20035;-67
2023/09/10 08:08:09;;;;;;;14.65;11.63;;;;;;;25.25;100.00;101677.09;5152362;28;20050;-67
2023/09/10 08:10:43;;;;;;;17.50;12.68;;;;;;;25.30;100.00;101669.38;5153282;28;20055;-69
2023/09/10 08:13:14;;;;;;;;;;;;;;;25.62;100.00;101675.66;5153112;28;20027;-67
2023/09/10 08:15:46;;;;;;;16.58;11.52;;;;;;;25.37;100.00;101675.75;5152576;28;19922;-69
2023/09/10 08:18:17;;;;;;;18.73;11.13;;;;;;;25.57;100.00;101669.97;5152876;28;20035;-66
2023/09/10 08:20:48;;;;;;;15.02;10.43;;;;;;;25.81;100.00;101667.41;5148941;29;20030;-69
2023/09/10 08:23:20;;;;;;;17.17;11.20;;;;;;;25.88;100.00;101667.56;5152265;28;20034;-67
2023/09/10 08:25:52;;;;;;;22.58;10.38;;;;;;;26.13;100.00;101670.94;5153434;28;20030;-68
2023/09/10 08:28:23;;;;;;;13.63;9.85;;;;;;;26.16;100.00;101670.63;5152594;28;20063;-68
2023/09/10 08:30:55;;;;;;;16.88;10.93;;;;;;;26.27;100.00;101664.00;5152464;28;20059;-67
2023/09/10 08:33:26;;;;;;;22.42;9.95;;;;;;;26.40;100.00;101667.97;5152579;28;20035;-69
2023/09/10 08:35:57;;;;;;;15.93;10.50;;;;;;;26.50;100.00;101665.03;5152052;28;20127;-68
2023/09/10 08:38:29;;;;;;;17.20;9.48;;;;;;;26.57;100.00;101660.63;5151552;28;20028;-69
2023/09/10 08:41:12;;;;;;;17.33;9.38;;;;;;;26.63;100.00;101659.94;5152484;28;20050;-72
2023/09/10 08:43:51;;;;;;;13.23;7.60;;;;;;;27.10;100.00;101667.94;5151681;28;20042;-68
2023/09/10 08:46:29;;;;;;;13.70;7.97;;;;;;;26.94;100.00;101658.16;5151057;28;20058;-68
2023/09/10 08:49:01;;;;;;;10.70;8.55;;;;;;;27.10;100.00;101667.13;5151806;28;20039;-69
2023/09/10 08:51:34;;;;;;;15.70;8.57;;;;;;;27.06;100.00;101666.63;5142787;28;20540;-69
2023/09/10 08:54:07;;;;;;;19.90;10.00;;;;;;;27.39;100.00;101668.16;5146977;28;20035;-71
2023/09/10 08:56:39;;;;;;;18.52;9.23;;;;;;;27.66;100.00;101663.16;5152452;28;20031;-72
2023/09/10 08:59:13;;;;;;;12.82;7.93;;;;;;;27.71;100.00;101658.06;5145064;28;20028;-71
2023/09/10 09:01:44;;;;;;;19.85;7.57;;;;;;;27.75;100.00;101674.69;5145466;28;20422;-68
2023/09/10 09:04:16;;;;;;;15.10;7.72;;;;;;;27.82;100.00;101655.94;5144590;28;20126;-67
2023/09/10 09:06:53;;;;;;;14.98;8.27;;;;;;;28.17;100.00;101669.59;5152287;28;20049;-67
2023/09/10 09:09:27;;;;;;;15.07;7.90;;;;;;;28.20;100.00;101669.22;5142248;28;20114;-68
2023/09/10 09:12:02;;;;;;;10.05;7.35;;;;;;;28.21;100.00;101668.16;5152704;28;20094;-69
2023/09/10 09:14:36;;;;;;;10.15;8.10;;;;;;;28.26;100.00;101667.59;5149220;28;20027;-67
2023/09/10 09:17:10;;;;;;;13.32;7.97;;;;;;;28.34;100.00;101661.25;5152038;28;20031;-69
2023/09/10 09:19:45;;;;;;;10.40;7.70;;;;;;;28.40;100.00;101657.81;5148386;28;20123;-68
2023/09/10 09:22:20;;;;;;;11.45;6.90;;;;;;;28.58;100.00;101649.31;5145125;28;20038;-68
2023/09/10 09:24:52;;;;;;;10.48;6.90;;;;;;;28.78;100.00;101655.88;5147052;28;20028;-66
2023/09/10 09:27:25;;;;;;;11.98;7.47;;;;;;;28.89;100.00;101649.94;5146916;29;20478;-68
2023/09/10 09:29:57;;;;;;;12.52;6.97;;;;;;;28.83;100.00;101656.13;5141104;28;20498;-70
2023/09/10 09:32:29;;;;;;;18.25;7.18;;;;;;;28.87;100.00;101652.00;5151976;29;20471;-68
2023/09/10 09:35:02;;;;;;;11.25;6.85;;;;;;;29.01;100.00;101649.47;5151577;28;20049;-69
2023/09/10 09:37:35;;;;;;;11.75;6.85;;;;;;;28.86;100.00;101636.88;5146696;28;20034;-70
2023/09/10 09:40:09;;;;;;;14.05;6.85;;;;;;;29.35;100.00;101648.66;5147826;29;20033;-69
2023/09/10 09:42:40;;;;;;;13.65;7.80;;;;;;;29.30;100.00;101648.41;5150937;29;20031;-70
2023/09/10 09:45:11;;;;;;;14.02;7.30;;;;;;;29.46;100.00;101649.91;5143278;29;20039;-69
2023/09/10 09:47:46;;;;;;;15.20;6.72;;;;;;;29.72;100.00;101647.59;5140426;29;20480;-68
2023/09/10 09:50:19;;;;;;;16.67;8.15;;;;;;;29.57;96.25;101639.59;5150883;29;20542;-68
2023/09/10 09:52:51;;;;;;;17.80;7.30;;;;;;;29.80;99.39;101646.56;5144260;28;20020;-69
2023/09/10 09:55:23;;;;;;;12.75;6.85;;;;;;;29.81;94.56;101648.25;5145695;29;20031;-68
2023/09/10 09:57:54;;;;;;;13.00;6.85;;;;;;;29.82;100.00;101644.50;5151833;28;20023;-66
2023/09/10 10:00:26;;;;;;;15.35;6.97;;;;;;;29.95;93.14;101641.84;5151071;28;20082;-67
2023/09/10 10:02:57;;;;;;;15.32;5.88;;;;;;;30.02;88.80;101639.16;5161000;28;20050;-70
2023/09/10 10:05:29;;;;;;;10.85;6.68;;;;;;;29.98;87.85;101640.63;5143477;28;20019;-67
2023/09/10 10:08:00;;;;;;;13.55;6.13;;;;;;;30.12;84.34;101638.78;5142344;28;20038;-71
2023/09/10 10:10:33;;;;;;;17.73;5.90;;;;;;;30.17;85.48;101636.31;5151204;28;20082;-69
2023/09/10 10:13:05;;;;;;;14.40;6.93;;;;;;;30.27;81.87;101643.19;5150759;29;20023;-71
2023/09/10 10:15:37;;;;;;;11.20;5.40;;;;;;;30.39;88.69;101636.16;5150301;28;20031;-70
2023/09/10 10:18:09;;;;;;;8.30;5.25;;;;;;;30.39;85.77;101638.84;5150203;28;20039;-72
2023/09/10 10:20:46;;;;;;;9.77;5.55;;;;;;;30.56;75.34;101633.06;5141156;28;20074;-71
2023/09/10 10:23:19;;;;;;;12.25;5.57;;;;;;;30.65;75.55;101637.19;5139503;29;20130;-71
2023/09/10 10:25:52;;;;;;;8.88;5.35;;;;;;;30.94;75.17;101622.63;5150416;28;20553;-70
2023/09/10 10:28:25;;;;;;;17.10;5.18;;;;;;;31.54;71.54;101632.47;5150268;28;20027;-70
2023/09/10 10:31:07;;;;;;;12.48;5.70;;;;;;;31.57;72.31;101621.25;5150099;28;20024;-70
2023/09/10 10:33:47;;;;;;;11.38;4.93;;;;;;;31.90;67.04;101626.69;5165819;28;20077;-72
2023/09/10 10:36:30;;;;;;;9.07;5.38;;;;;;;32.18;68.31;101623.63;5150136;28;20098;-70
2023/09/10 10:39:08;;;;;;;12.55;5.75;;;;;;;32.48;64.21;101617.56;5146445;28;20410;-71
2023/09/10 10:41:47;;;;;;;12.00;4.95;;;;;;;32.95;62.96;101620.94;5148380;28;20019;-76
2023/09/10 10:44:29;;;;;;;15.63;6.30;;;;;;;32.83;57.65;101624.34;5148243;28;20059;-71
2023/09/10 10:47:10;;;;;;;19.63;7.13;;;;;;;33.25;57.25;101617.47;5149524;28;20031;-72
2023/09/10 10:49:51;;;;;;;12.25;5.20;;;;;;;33.01;55.84;101611.06;5150665;28;20020;-73
2023/09/10 10:52:30;;;;;;;15.23;5.15;;;;;;;33.27;57.11;101617.28;5143257;29;20035;-74
2023/09/10 10:55:02;;;;;;;11.75;5.22;;;;;;;33.25;55.42;101612.03;5150086;28;20037;-70
2023/09/10 10:57:34;;;;;;;12.77;4.70;;;;;;;33.16;55.25;101597.16;5148788;28;20118;-71
2023/09/10 11:00:09;;;;;;;9.68;4.50;;;;;;;33.30;53.98;101603.25;5148879;28;20106;-71
2023/09/10 11:02:40;;;;;;;19.27;5.30;;;;;;;33.35;52.49;101605.25;5148291;29;20054;-71
2023/09/10 11:05:12;;;;;;;14.18;4.75;;;;;;;33.36;49.31;101607.75;5149434;28;20019;-69
2023/09/10 11:07:45;;;;;;;12.75;3.90;;;;;;;33.40;49.80;101606.25;5149357;28;20035;-70
2023/09/10 11:10:28;;;;;;;13.00;4.68;;;;;;;33.13;50.20;101603.03;5149423;28;20474;-71
2023/09/10 11:13:10;;;;;;;11.73;4.18;;;;;;;33.20;52.89;101599.16;5149221;28;20037;-71
2023/09/10 11:16:04;;;;;;;17.70;5.03;;;;;;;33.54;52.65;101601.47;5147937;28;20035;-72
2023/09/10 11:18:35;;;;;;;18.23;4.43;;;;;;;33.16;53.69;101602.56;5149570;29;20059;-72
2023/09/10 11:21:10;;;;;;;8.10;3.80;;;;;;;33.11;51.77;101602.41;5148494;28;20114;-73
2023/09/10 11:23:54;;;;;;;17.63;5.00;;;;;;;33.10;53.14;101598.88;5146648;29;20756;-67
2023/09/10 11:26:25;;;;;;;;;;;;;;;33.50;53.43;101602.97;5146828;28;20023;-70
2023/09/10 11:29:03;;;;;;;9.15;4.15;;;;;;;33.02;53.79;101596.44;5148516;28;19965;-71